sensor_id;sensor_type;location;lat;lon;timestamp;temperature;humidity
76537;DHT22;65381;51.254;15.592;2023-12-20T00:00:05;5.50;97.50
76537;DHT22;65381;51.254;15.592;2023-12-20T00:02:33;5.50;97.60
76537;DHT22;65381;51.254;15.592;2023-12-20T00:05:03;5.50;97.60
76537;DHT22;65381;51.254;15.592;2023-12-20T00:07:30;5.50;97.60
76537;DHT22;65381;51.254;15.592;2023-12-20T00:09:59;5.50;97.60
76537;DHT22;65381;51.254;15.592;2023-12-20T00:12:27;5.50;97.50
76537;DHT22;65381;51.254;15.592;2023-12-20T00:14:55;5.50;97.40
76537;DHT22;65381;51.254;15.592;2023-12-20T00:17:22;5.50;97.40
76537;DHT22;65381;51.254;15.592;2023-12-20T00:19:51;5.50;97.40
76537;DHT22;65381;51.254;15.592;2023-12-20T00:22:19;5.50;97.40
76537;DHT22;65381;51.254;15.592;2023-12-20T00:24:47;5.40;97.40
76537;DHT22;65381;51.254;15.592;2023-12-20T00:27:15;5.40;97.40
76537;DHT22;65381;51.254;15.592;2023-12-20T00:29:42;5.40;97.40
76537;DHT22;65381;51.254;15.592;2023-12-20T00:32:15;5.40;97.40
76537;DHT22;65381;51.254;15.592;2023-12-20T00:34:43;5.30;97.40
76537;DHT22;65381;51.254;15.592;2023-12-20T00:37:11;5.30;97.50
76537;DHT22;65381;51.254;15.592;2023-12-20T00:39:40;5.30;97.50
76537;DHT22;65381;51.254;15.592;2023-12-20T00:42:08;5.30;97.40
76537;DHT22;65381;51.254;15.592;2023-12-20T00:44:36;5.30;97.40
76537;DHT22;65381;51.254;15.592;2023-12-20T00:47:06;5.30;97.50
76537;DHT22;65381;51.254;15.592;2023-12-20T00:49:34;5.30;97.40
76537;DHT22;65381;51.254;15.592;2023-12-20T00:52:02;5.30;97.40
76537;DHT22;65381;51.254;15.592;2023-12-20T00:54:31;5.30;97.30
76537;DHT22;65381;51.254;15.592;2023-12-20T00:56:58;5.20;97.20
76537;DHT22;65381;51.254;15.592;2023-12-20T00:59:27;5.10;97.20
76537;DHT22;65381;51.254;15.592;2023-12-20T01:01:55;5.10;97.20
76537;DHT22;65381;51.254;15.592;2023-12-20T01:04:23;5.00;97.20
76537;DHT22;65381;51.254;15.592;2023-12-20T01:06:52;5.00;97.20
76537;DHT22;65381;51.254;15.592;2023-12-20T01:09:21;5.00;97.20
76537;DHT22;65381;51.254;15.592;2023-12-20T01:11:50;5.00;97.20
76537;DHT22;65381;51.254;15.592;2023-12-20T01:14:19;5.00;97.20
76537;DHT22;65381;51.254;15.592;2023-12-20T01:16:47;5.00;97.20
76537;DHT22;65381;51.254;15.592;2023-12-20T01:19:15;4.90;97.20
76537;DHT22;65381;51.254;15.592;2023-12-20T01:21:43;4.90;97.20
76537;DHT22;65381;51.254;15.592;2023-12-20T01:24:12;4.90;97.30
76537;DHT22;65381;51.254;15.592;2023-12-20T01:26:39;4.90;97.30
76537;DHT22;65381;51.254;15.592;2023-12-20T01:29:07;4.90;97.40
76537;DHT22;65381;51.254;15.592;2023-12-20T01:31:35;4.90;97.50
76537;DHT22;65381;51.254;15.592;2023-12-20T01:34:03;4.90;97.50
76537;DHT22;65381;51.254;15.592;2023-12-20T01:36:31;4.90;97.50
76537;DHT22;65381;51.254;15.592;2023-12-20T01:38:59;4.80;97.50
76537;DHT22;65381;51.254;15.592;2023-12-20T01:41:27;4.80;97.50
76537;DHT22;65381;51.254;15.592;2023-12-20T01:43:55;4.90;97.60
76537;DHT22;65381;51.254;15.592;2023-12-20T01:46:24;4.80;97.60
76537;DHT22;65381;51.254;15.592;2023-12-20T01:48:53;4.80;97.50
76537;DHT22;65381;51.254;15.592;2023-12-20T01:51:21;4.80;97.50
76537;DHT22;65381;51.254;15.592;2023-12-20T01:53:50;4.80;97.50
76537;DHT22;65381;51.254;15.592;2023-12-20T01:56:17;4.80;97.50
76537;DHT22;65381;51.254;15.592;2023-12-20T01:58:46;4.80;97.50
76537;DHT22;65381;51.254;15.592;2023-12-20T02:01:15;4.80;97.40
76537;DHT22;65381;51.254;15.592;2023-12-20T02:03:45;4.70;97.50
76537;DHT22;65381;51.254;15.592;2023-12-20T02:06:13;4.80;97.50
76537;DHT22;65381;51.254;15.592;2023-12-20T02:08:42;4.70;97.40
76537;DHT22;65381;51.254;15.592;2023-12-20T02:11:10;4.70;97.40
76537;DHT22;65381;51.254;15.592;2023-12-20T02:13:38;4.70;97.50
76537;DHT22;65381;51.254;15.592;2023-12-20T02:16:06;4.70;97.40
76537;DHT22;65381;51.254;15.592;2023-12-20T02:18:35;4.70;97.40
76537;DHT22;65381;51.254;15.592;2023-12-20T02:21:05;4.70;97.50
76537;DHT22;65381;51.254;15.592;2023-12-20T02:23:33;4.70;97.40
76537;DHT22;65381;51.254;15.592;2023-12-20T02:26:01;4.70;97.40
76537;DHT22;65381;51.254;15.592;2023-12-20T02:28:29;4.70;97.40
76537;DHT22;65381;51.254;15.592;2023-12-20T02:30:57;4.70;97.50
76537;DHT22;65381;51.254;15.592;2023-12-20T02:33:25;4.70;97.50
76537;DHT22;65381;51.254;15.592;2023-12-20T02:35:53;4.70;97.50
76537;DHT22;65381;51.254;15.592;2023-12-20T02:38:21;4.70;97.50
76537;DHT22;65381;51.254;15.592;2023-12-20T02:40:49;4.70;97.50
76537;DHT22;65381;51.254;15.592;2023-12-20T02:43:17;4.70;97.50
76537;DHT22;65381;51.254;15.592;2023-12-20T02:45:45;4.70;97.50
76537;DHT22;65381;51.254;15.592;2023-12-20T02:48:14;4.70;97.40
76537;DHT22;65381;51.254;15.592;2023-12-20T02:50:42;4.70;97.50
76537;DHT22;65381;51.254;15.592;2023-12-20T02:53:10;4.70;97.50
76537;DHT22;65381;51.254;15.592;2023-12-20T02:55:38;4.70;97.50
76537;DHT22;65381;51.254;15.592;2023-12-20T02:58:06;4.70;97.50
76537;DHT22;65381;51.254;15.592;2023-12-20T03:00:33;4.60;97.50
76537;DHT22;65381;51.254;15.592;2023-12-20T03:03:02;4.60;97.60
76537;DHT22;65381;51.254;15.592;2023-12-20T03:05:29;4.60;97.50
76537;DHT22;65381;51.254;15.592;2023-12-20T03:07:58;4.60;97.60
76537;DHT22;65381;51.254;15.592;2023-12-20T03:10:26;4.60;97.60
76537;DHT22;65381;51.254;15.592;2023-12-20T03:12:54;4.60;97.60
76537;DHT22;65381;51.254;15.592;2023-12-20T03:15:22;4.60;97.50
76537;DHT22;65381;51.254;15.592;2023-12-20T03:17:50;4.50;97.50
76537;DHT22;65381;51.254;15.592;2023-12-20T03:20:18;4.50;97.50
76537;DHT22;65381;51.254;15.592;2023-12-20T03:22:46;4.50;97.50
76537;DHT22;65381;51.254;15.592;2023-12-20T03:25:14;4.50;97.50
76537;DHT22;65381;51.254;15.592;2023-12-20T03:27:42;4.50;97.60
76537;DHT22;65381;51.254;15.592;2023-12-20T03:30:11;4.50;97.50
76537;DHT22;65381;51.254;15.592;2023-12-20T03:32:39;4.50;97.60
76537;DHT22;65381;51.254;15.592;2023-12-20T03:35:07;4.50;97.60
76537;DHT22;65381;51.254;15.592;2023-12-20T03:37:35;4.50;97.60
76537;DHT22;65381;51.254;15.592;2023-12-20T03:40:03;4.50;97.60
76537;DHT22;65381;51.254;15.592;2023-12-20T03:42:32;4.50;97.60
76537;DHT22;65381;51.254;15.592;2023-12-20T03:44:59;4.50;97.60
76537;DHT22;65381;51.254;15.592;2023-12-20T03:47:27;4.50;97.70
76537;DHT22;65381;51.254;15.592;2023-12-20T03:49:55;4.50;97.70
76537;DHT22;65381;51.254;15.592;2023-12-20T03:52:23;4.50;97.70
76537;DHT22;65381;51.254;15.592;2023-12-20T03:54:51;4.50;97.60
76537;DHT22;65381;51.254;15.592;2023-12-20T03:57:19;4.50;97.60
76537;DHT22;65381;51.254;15.592;2023-12-20T03:59:47;4.50;97.60
76537;DHT22;65381;51.254;15.592;2023-12-20T04:02:15;4.50;97.60
76537;DHT22;65381;51.254;15.592;2023-12-20T04:04:45;4.50;97.60
76537;DHT22;65381;51.254;15.592;2023-12-20T04:07:13;4.50;97.70
76537;DHT22;65381;51.254;15.592;2023-12-20T04:09:41;4.50;97.60
76537;DHT22;65381;51.254;15.592;2023-12-20T04:12:09;4.50;97.60
76537;DHT22;65381;51.254;15.592;2023-12-20T04:14:37;4.50;97.60
76537;DHT22;65381;51.254;15.592;2023-12-20T04:17:05;4.50;97.60
76537;DHT22;65381;51.254;15.592;2023-12-20T04:19:33;4.50;97.70
76537;DHT22;65381;51.254;15.592;2023-12-20T04:22:01;4.50;97.60
76537;DHT22;65381;51.254;15.592;2023-12-20T04:24:29;4.50;97.60
76537;DHT22;65381;51.254;15.592;2023-12-20T04:26:57;4.50;97.60
76537;DHT22;65381;51.254;15.592;2023-12-20T04:29:25;4.50;97.50
76537;DHT22;65381;51.254;15.592;2023-12-20T04:31:53;4.50;97.60
76537;DHT22;65381;51.254;15.592;2023-12-20T04:34:22;4.50;97.60
76537;DHT22;65381;51.254;15.592;2023-12-20T04:36:51;4.50;97.60
76537;DHT22;65381;51.254;15.592;2023-12-20T04:39:19;4.50;97.50
76537;DHT22;65381;51.254;15.592;2023-12-20T04:41:47;4.50;97.60
76537;DHT22;65381;51.254;15.592;2023-12-20T04:44:15;4.40;97.60
76537;DHT22;65381;51.254;15.592;2023-12-20T04:46:44;4.40;97.60
76537;DHT22;65381;51.254;15.592;2023-12-20T04:49:11;4.40;97.60
76537;DHT22;65381;51.254;15.592;2023-12-20T04:51:39;4.40;97.70
76537;DHT22;65381;51.254;15.592;2023-12-20T04:54:07;4.40;97.70
76537;DHT22;65381;51.254;15.592;2023-12-20T04:56:35;4.40;97.70
76537;DHT22;65381;51.254;15.592;2023-12-20T04:59:03;4.40;97.70
76537;DHT22;65381;51.254;15.592;2023-12-20T05:01:31;4.40;97.70
76537;DHT22;65381;51.254;15.592;2023-12-20T05:03:59;4.40;97.70
76537;DHT22;65381;51.254;15.592;2023-12-20T05:06:27;4.30;97.70
76537;DHT22;65381;51.254;15.592;2023-12-20T05:08:55;4.30;97.70
76537;DHT22;65381;51.254;15.592;2023-12-20T05:11:23;4.30;97.70
76537;DHT22;65381;51.254;15.592;2023-12-20T05:13:51;4.30;97.80
76537;DHT22;65381;51.254;15.592;2023-12-20T05:16:19;4.30;97.70
76537;DHT22;65381;51.254;15.592;2023-12-20T05:18:48;4.30;97.90
76537;DHT22;65381;51.254;15.592;2023-12-20T05:21:18;4.30;97.90
76537;DHT22;65381;51.254;15.592;2023-12-20T05:23:46;4.30;97.90
76537;DHT22;65381;51.254;15.592;2023-12-20T05:26:14;4.30;97.90
76537;DHT22;65381;51.254;15.592;2023-12-20T05:28:42;4.30;97.90
76537;DHT22;65381;51.254;15.592;2023-12-20T05:31:10;4.30;97.80
76537;DHT22;65381;51.254;15.592;2023-12-20T05:33:38;4.30;97.90
76537;DHT22;65381;51.254;15.592;2023-12-20T05:36:06;4.30;97.90
76537;DHT22;65381;51.254;15.592;2023-12-20T05:38:38;4.30;97.90
76537;DHT22;65381;51.254;15.592;2023-12-20T05:41:07;4.30;97.90
76537;DHT22;65381;51.254;15.592;2023-12-20T05:43:34;4.30;97.90
76537;DHT22;65381;51.254;15.592;2023-12-20T05:46:03;4.20;97.90
76537;DHT22;65381;51.254;15.592;2023-12-20T05:48:33;4.20;97.90
76537;DHT22;65381;51.254;15.592;2023-12-20T05:51:01;4.20;98.00
76537;DHT22;65381;51.254;15.592;2023-12-20T05:53:29;4.20;98.00
76537;DHT22;65381;51.254;15.592;2023-12-20T05:55:57;4.20;98.00
76537;DHT22;65381;51.254;15.592;2023-12-20T05:58:25;4.20;98.00
76537;DHT22;65381;51.254;15.592;2023-12-20T06:00:53;4.20;98.10
76537;DHT22;65381;51.254;15.592;2023-12-20T06:03:21;4.20;98.00
76537;DHT22;65381;51.254;15.592;2023-12-20T06:05:49;4.20;98.00
76537;DHT22;65381;51.254;15.592;2023-12-20T06:08:20;4.20;98.00
76537;DHT22;65381;51.254;15.592;2023-12-20T06:10:49;4.20;98.00
76537;DHT22;65381;51.254;15.592;2023-12-20T06:13:16;4.20;98.00
76537;DHT22;65381;51.254;15.592;2023-12-20T06:15:45;4.20;98.00
76537;DHT22;65381;51.254;15.592;2023-12-20T06:18:13;4.20;98.00
76537;DHT22;65381;51.254;15.592;2023-12-20T06:20:41;4.20;98.00
76537;DHT22;65381;51.254;15.592;2023-12-20T06:23:08;4.20;98.10
76537;DHT22;65381;51.254;15.592;2023-12-20T06:25:37;4.20;98.00
76537;DHT22;65381;51.254;15.592;2023-12-20T06:28:05;4.20;98.10
76537;DHT22;65381;51.254;15.592;2023-12-20T06:30:33;4.10;98.10
76537;DHT22;65381;51.254;15.592;2023-12-20T06:33:01;4.10;98.20
76537;DHT22;65381;51.254;15.592;2023-12-20T06:35:29;4.20;98.20
76537;DHT22;65381;51.254;15.592;2023-12-20T06:38:01;4.20;98.20
76537;DHT22;65381;51.254;15.592;2023-12-20T06:40:29;4.20;98.10
76537;DHT22;65381;51.254;15.592;2023-12-20T06:42:57;4.10;98.10
76537;DHT22;65381;51.254;15.592;2023-12-20T06:45:36;4.10;98.10
76537;DHT22;65381;51.254;15.592;2023-12-20T06:48:04;4.20;98.20
76537;DHT22;65381;51.254;15.592;2023-12-20T06:50:33;4.10;98.20
76537;DHT22;65381;51.254;15.592;2023-12-20T06:53:01;4.10;98.20
76537;DHT22;65381;51.254;15.592;2023-12-20T06:55:35;4.10;98.20
76537;DHT22;65381;51.254;15.592;2023-12-20T06:58:05;4.20;98.20
76537;DHT22;65381;51.254;15.592;2023-12-20T07:00:34;4.20;98.20
76537;DHT22;65381;51.254;15.592;2023-12-20T07:03:02;4.10;98.20
76537;DHT22;65381;51.254;15.592;2023-12-20T07:05:31;4.10;98.20
76537;DHT22;65381;51.254;15.592;2023-12-20T07:08:00;4.10;98.20
76537;DHT22;65381;51.254;15.592;2023-12-20T07:10:28;4.10;98.30
76537;DHT22;65381;51.254;15.592;2023-12-20T07:12:56;4.20;98.30
76537;DHT22;65381;51.254;15.592;2023-12-20T07:15:24;4.20;98.30
76537;DHT22;65381;51.254;15.592;2023-12-20T07:17:53;4.20;98.40
76537;DHT22;65381;51.254;15.592;2023-12-20T07:20:21;4.20;98.30
76537;DHT22;65381;51.254;15.592;2023-12-20T07:22:49;4.20;98.40
76537;DHT22;65381;51.254;15.592;2023-12-20T07:25:18;4.20;98.40
76537;DHT22;65381;51.254;15.592;2023-12-20T07:27:47;4.20;98.50
76537;DHT22;65381;51.254;15.592;2023-12-20T07:30:16;4.30;98.50
76537;DHT22;65381;51.254;15.592;2023-12-20T07:32:44;4.30;98.50
76537;DHT22;65381;51.254;15.592;2023-12-20T07:35:12;4.30;98.50
76537;DHT22;65381;51.254;15.592;2023-12-20T07:37:40;4.30;98.40
76537;DHT22;65381;51.254;15.592;2023-12-20T07:40:08;4.30;98.40
76537;DHT22;65381;51.254;15.592;2023-12-20T07:42:36;4.40;98.40
76537;DHT22;65381;51.254;15.592;2023-12-20T07:45:05;4.40;98.30
76537;DHT22;65381;51.254;15.592;2023-12-20T07:47:32;4.30;98.20
76537;DHT22;65381;51.254;15.592;2023-12-20T07:50:01;4.40;98.30
76537;DHT22;65381;51.254;15.592;2023-12-20T07:52:30;4.40;98.30
76537;DHT22;65381;51.254;15.592;2023-12-20T07:54:58;4.40;98.30
76537;DHT22;65381;51.254;15.592;2023-12-20T07:57:29;4.30;98.30
76537;DHT22;65381;51.254;15.592;2023-12-20T07:59:58;4.40;98.30
76537;DHT22;65381;51.254;15.592;2023-12-20T08:02:26;4.40;98.20
76537;DHT22;65381;51.254;15.592;2023-12-20T08:04:54;4.40;98.20
76537;DHT22;65381;51.254;15.592;2023-12-20T08:07:22;4.40;98.30
76537;DHT22;65381;51.254;15.592;2023-12-20T08:09:50;4.40;98.40
76537;DHT22;65381;51.254;15.592;2023-12-20T08:12:19;4.50;98.50
76537;DHT22;65381;51.254;15.592;2023-12-20T08:14:47;4.50;98.60
76537;DHT22;65381;51.254;15.592;2023-12-20T08:17:15;4.60;98.70
76537;DHT22;65381;51.254;15.592;2023-12-20T08:19:43;4.70;98.70
76537;DHT22;65381;51.254;15.592;2023-12-20T08:22:12;4.70;98.70
76537;DHT22;65381;51.254;15.592;2023-12-20T08:24:40;4.70;98.50
76537;DHT22;65381;51.254;15.592;2023-12-20T08:27:08;4.80;98.40
76537;DHT22;65381;51.254;15.592;2023-12-20T08:29:37;4.80;98.40
76537;DHT22;65381;51.254;15.592;2023-12-20T08:32:05;4.90;98.50
76537;DHT22;65381;51.254;15.592;2023-12-20T08:34:33;4.90;98.50
76537;DHT22;65381;51.254;15.592;2023-12-20T08:37:01;4.90;98.50
76537;DHT22;65381;51.254;15.592;2023-12-20T08:39:29;5.00;98.50
76537;DHT22;65381;51.254;15.592;2023-12-20T08:41:59;5.00;98.30
76537;DHT22;65381;51.254;15.592;2023-12-20T08:44:27;4.90;98.20
76537;DHT22;65381;51.254;15.592;2023-12-20T08:46:55;4.90;98.20
76537;DHT22;65381;51.254;15.592;2023-12-20T08:49:25;4.90;98.00
76537;DHT22;65381;51.254;15.592;2023-12-20T08:51:53;4.80;98.00
76537;DHT22;65381;51.254;15.592;2023-12-20T08:54:21;4.80;97.90
76537;DHT22;65381;51.254;15.592;2023-12-20T08:56:49;4.70;97.90
76537;DHT22;65381;51.254;15.592;2023-12-20T08:59:17;4.70;98.00
76537;DHT22;65381;51.254;15.592;2023-12-20T09:01:46;4.70;98.00
76537;DHT22;65381;51.254;15.592;2023-12-20T09:04:16;4.70;98.00
76537;DHT22;65381;51.254;15.592;2023-12-20T09:06:44;4.70;98.10
76537;DHT22;65381;51.254;15.592;2023-12-20T09:09:13;4.80;98.30
76537;DHT22;65381;51.254;15.592;2023-12-20T09:11:44;4.90;98.50
76537;DHT22;65381;51.254;15.592;2023-12-20T09:14:14;4.90;98.40
76537;DHT22;65381;51.254;15.592;2023-12-20T09:16:42;4.90;98.20
76537;DHT22;65381;51.254;15.592;2023-12-20T09:19:10;4.90;98.10
76537;DHT22;65381;51.254;15.592;2023-12-20T09:21:38;4.90;98.10
76537;DHT22;65381;51.254;15.592;2023-12-20T09:24:07;4.90;98.00
76537;DHT22;65381;51.254;15.592;2023-12-20T09:26:35;4.90;98.20
76537;DHT22;65381;51.254;15.592;2023-12-20T09:29:04;5.00;98.30
76537;DHT22;65381;51.254;15.592;2023-12-20T09:31:31;5.00;98.20
76537;DHT22;65381;51.254;15.592;2023-12-20T09:34:00;5.00;98.20
76537;DHT22;65381;51.254;15.592;2023-12-20T09:36:29;5.00;98.40
76537;DHT22;65381;51.254;15.592;2023-12-20T09:38:59;5.10;98.70
76537;DHT22;65381;51.254;15.592;2023-12-20T09:41:29;5.20;98.90
76537;DHT22;65381;51.254;15.592;2023-12-20T09:44:02;5.40;99.20
76537;DHT22;65381;51.254;15.592;2023-12-20T09:46:32;5.70;99.90
76537;DHT22;65381;51.254;15.592;2023-12-20T09:49:03;6.30;99.90
76537;DHT22;65381;51.254;15.592;2023-12-20T09:51:31;6.60;99.90
76537;DHT22;65381;51.254;15.592;2023-12-20T09:54:03;7.00;99.90
76537;DHT22;65381;51.254;15.592;2023-12-20T09:56:31;7.50;99.90
76537;DHT22;65381;51.254;15.592;2023-12-20T09:58:59;7.70;99.90
76537;DHT22;65381;51.254;15.592;2023-12-20T10:01:28;7.50;96.80
76537;DHT22;65381;51.254;15.592;2023-12-20T10:04:00;7.10;96.10
76537;DHT22;65381;51.254;15.592;2023-12-20T10:06:40;6.80;96.30
76537;DHT22;65381;51.254;15.592;2023-12-20T10:09:09;6.60;96.40
76537;DHT22;65381;51.254;15.592;2023-12-20T10:11:38;6.40;97.00
76537;DHT22;65381;51.254;15.592;2023-12-20T10:14:08;6.30;97.70
76537;DHT22;65381;51.254;15.592;2023-12-20T10:16:38;6.20;97.50
76537;DHT22;65381;51.254;15.592;2023-12-20T10:19:06;6.10;97.50
76537;DHT22;65381;51.254;15.592;2023-12-20T10:21:34;6.00;97.70
76537;DHT22;65381;51.254;15.592;2023-12-20T10:24:02;6.00;98.00
76537;DHT22;65381;51.254;15.592;2023-12-20T10:26:35;5.90;98.30
76537;DHT22;65381;51.254;15.592;2023-12-20T10:29:05;5.90;98.20
76537;DHT22;65381;51.254;15.592;2023-12-20T10:31:33;5.90;98.00
76537;DHT22;65381;51.254;15.592;2023-12-20T10:34:03;5.90;98.20
76537;DHT22;65381;51.254;15.592;2023-12-20T10:36:32;5.90;98.40
76537;DHT22;65381;51.254;15.592;2023-12-20T10:39:01;5.90;98.30
76537;DHT22;65381;51.254;15.592;2023-12-20T10:41:32;5.90;98.30
76537;DHT22;65381;51.254;15.592;2023-12-20T10:44:03;5.90;98.40
76537;DHT22;65381;51.254;15.592;2023-12-20T10:46:34;5.90;98.30
76537;DHT22;65381;51.254;15.592;2023-12-20T10:49:03;5.90;98.60
76537;DHT22;65381;51.254;15.592;2023-12-20T10:51:34;6.00;98.70
76537;DHT22;65381;51.254;15.592;2023-12-20T10:54:02;6.00;98.70
76537;DHT22;65381;51.254;15.592;2023-12-20T10:56:32;6.10;98.80
76537;DHT22;65381;51.254;15.592;2023-12-20T10:59:02;6.20;99.10
76537;DHT22;65381;51.254;15.592;2023-12-20T11:01:33;6.30;99.00
76537;DHT22;65381;51.254;15.592;2023-12-20T11:04:06;6.40;98.80
76537;DHT22;65381;51.254;15.592;2023-12-20T11:06:46;6.40;98.70
76537;DHT22;65381;51.254;15.592;2023-12-20T11:14:47;6.40;97.90
76537;DHT22;65381;51.254;15.592;2023-12-20T11:17:15;6.30;97.70
76537;DHT22;65381;51.254;15.592;2023-12-20T11:22:26;6.10;97.60
76537;DHT22;65381;51.254;15.592;2023-12-20T11:25:07;6.00;97.70
76537;DHT22;65381;51.254;15.592;2023-12-20T11:27:42;5.90;97.70
76537;DHT22;65381;51.254;15.592;2023-12-20T11:30:14;5.90;97.60
76537;DHT22;65381;51.254;15.592;2023-12-20T11:32:42;5.80;97.60
76537;DHT22;65381;51.254;15.592;2023-12-20T11:37:40;5.70;97.50
76537;DHT22;65381;51.254;15.592;2023-12-20T11:40:15;5.70;97.60
76537;DHT22;65381;51.254;15.592;2023-12-20T11:42:44;5.60;97.80
76537;DHT22;65381;51.254;15.592;2023-12-20T11:45:15;5.70;97.90
76537;DHT22;65381;51.254;15.592;2023-12-20T11:47:47;5.70;98.20
76537;DHT22;65381;51.254;15.592;2023-12-20T11:50:17;5.80;98.20
76537;DHT22;65381;51.254;15.592;2023-12-20T11:52:45;5.80;98.30
76537;DHT22;65381;51.254;15.592;2023-12-20T11:55:14;5.90;98.40
76537;DHT22;65381;51.254;15.592;2023-12-20T11:57:43;5.90;98.40
76537;DHT22;65381;51.254;15.592;2023-12-20T12:00:14;5.90;98.20
76537;DHT22;65381;51.254;15.592;2023-12-20T12:02:42;5.90;98.20
76537;DHT22;65381;51.254;15.592;2023-12-20T12:05:13;6.00;98.30
76537;DHT22;65381;51.254;15.592;2023-12-20T12:07:41;6.00;98.50
76537;DHT22;65381;51.254;15.592;2023-12-20T12:10:09;6.10;98.50
76537;DHT22;65381;51.254;15.592;2023-12-20T12:12:37;6.10;98.60
76537;DHT22;65381;51.254;15.592;2023-12-20T12:15:06;6.20;98.60
76537;DHT22;65381;51.254;15.592;2023-12-20T12:17:34;6.30;98.40
76537;DHT22;65381;51.254;15.592;2023-12-20T12:20:05;6.30;98.60
76537;DHT22;65381;51.254;15.592;2023-12-20T12:22:33;6.40;98.70
76537;DHT22;65381;51.254;15.592;2023-12-20T12:25:12;6.40;98.20
76537;DHT22;65381;51.254;15.592;2023-12-20T12:27:42;6.30;97.80
76537;DHT22;65381;51.254;15.592;2023-12-20T12:30:11;6.20;97.70
76537;DHT22;65381;51.254;15.592;2023-12-20T12:32:40;6.20;97.90
76537;DHT22;65381;51.254;15.592;2023-12-20T12:35:10;6.10;98.00
76537;DHT22;65381;51.254;15.592;2023-12-20T12:37:39;6.10;98.00
76537;DHT22;65381;51.254;15.592;2023-12-20T12:40:12;6.10;97.90
76537;DHT22;65381;51.254;15.592;2023-12-20T12:42:42;6.10;98.00
76537;DHT22;65381;51.254;15.592;2023-12-20T12:45:11;6.10;97.90
76537;DHT22;65381;51.254;15.592;2023-12-20T12:47:39;6.10;98.00
76537;DHT22;65381;51.254;15.592;2023-12-20T12:50:08;6.10;98.40
76537;DHT22;65381;51.254;15.592;2023-12-20T12:52:36;6.30;99.50
76537;DHT22;65381;51.254;15.592;2023-12-20T12:55:05;6.60;99.60
76537;DHT22;65381;51.254;15.592;2023-12-20T12:57:33;6.70;98.70
76537;DHT22;65381;51.254;15.592;2023-12-20T13:00:02;6.60;98.00
76537;DHT22;65381;51.254;15.592;2023-12-20T13:02:33;6.50;98.00
76537;DHT22;65381;51.254;15.592;2023-12-20T13:05:01;6.50;98.10
76537;DHT22;65381;51.254;15.592;2023-12-20T13:07:30;6.50;98.20
76537;DHT22;65381;51.254;15.592;2023-12-20T13:09:58;6.50;98.30
76537;DHT22;65381;51.254;15.592;2023-12-20T13:12:26;6.50;98.20
76537;DHT22;65381;51.254;15.592;2023-12-20T13:14:57;6.50;98.20
76537;DHT22;65381;51.254;15.592;2023-12-20T13:17:24;6.50;98.00
76537;DHT22;65381;51.254;15.592;2023-12-20T13:19:56;6.40;98.00
76537;DHT22;65381;51.254;15.592;2023-12-20T13:22:24;6.40;98.00
76537;DHT22;65381;51.254;15.592;2023-12-20T13:24:52;6.50;98.80
76537;DHT22;65381;51.254;15.592;2023-12-20T13:27:20;6.60;98.70
76537;DHT22;65381;51.254;15.592;2023-12-20T13:29:48;6.60;98.20
76537;DHT22;65381;51.254;15.592;2023-12-20T13:32:16;6.50;98.00
76537;DHT22;65381;51.254;15.592;2023-12-20T13:34:47;6.40;97.90
76537;DHT22;65381;51.254;15.592;2023-12-20T13:37:15;6.40;98.00
76537;DHT22;65381;51.254;15.592;2023-12-20T13:39:43;6.40;97.90
76537;DHT22;65381;51.254;15.592;2023-12-20T13:42:11;6.30;97.70
76537;DHT22;65381;51.254;15.592;2023-12-20T13:44:39;6.20;97.80
76537;DHT22;65381;51.254;15.592;2023-12-20T13:47:07;6.20;97.80
76537;DHT22;65381;51.254;15.592;2023-12-20T13:49:35;6.10;97.90
76537;DHT22;65381;51.254;15.592;2023-12-20T13:52:03;6.10;97.90
76537;DHT22;65381;51.254;15.592;2023-12-20T13:54:32;6.10;98.00
76537;DHT22;65381;51.254;15.592;2023-12-20T13:57:00;6.10;98.00
76537;DHT22;65381;51.254;15.592;2023-12-20T13:59:43;6.10;98.10
76537;DHT22;65381;51.254;15.592;2023-12-20T14:02:11;6.10;98.00
76537;DHT22;65381;51.254;15.592;2023-12-20T14:04:39;6.10;97.90
76537;DHT22;65381;51.254;15.592;2023-12-20T14:07:10;6.10;97.80
76537;DHT22;65381;51.254;15.592;2023-12-20T14:09:40;6.00;97.70
76537;DHT22;65381;51.254;15.592;2023-12-20T14:12:14;6.00;97.70
76537;DHT22;65381;51.254;15.592;2023-12-20T14:14:42;6.00;97.60
76537;DHT22;65381;51.254;15.592;2023-12-20T14:17:12;6.00;97.70
76537;DHT22;65381;51.254;15.592;2023-12-20T14:19:41;6.00;97.70
76537;DHT22;65381;51.254;15.592;2023-12-20T14:22:09;5.90;97.60
76537;DHT22;65381;51.254;15.592;2023-12-20T14:24:37;5.90;97.70
76537;DHT22;65381;51.254;15.592;2023-12-20T14:27:05;5.90;97.60
76537;DHT22;65381;51.254;15.592;2023-12-20T14:29:33;5.90;97.50
76537;DHT22;65381;51.254;15.592;2023-12-20T14:32:01;5.90;97.50
76537;DHT22;65381;51.254;15.592;2023-12-20T14:34:31;5.90;97.50
76537;DHT22;65381;51.254;15.592;2023-12-20T14:36:59;5.80;97.50
76537;DHT22;65381;51.254;15.592;2023-12-20T14:39:27;5.90;97.50
76537;DHT22;65381;51.254;15.592;2023-12-20T14:41:55;5.90;97.50
76537;DHT22;65381;51.254;15.592;2023-12-20T14:44:24;5.80;97.50
76537;DHT22;65381;51.254;15.592;2023-12-20T14:46:51;5.80;97.30
76537;DHT22;65381;51.254;15.592;2023-12-20T14:49:20;5.80;97.30
76537;DHT22;65381;51.254;15.592;2023-12-20T14:51:47;5.80;97.30
76537;DHT22;65381;51.254;15.592;2023-12-20T14:54:16;5.80;97.40
76537;DHT22;65381;51.254;15.592;2023-12-20T14:56:44;5.80;97.50
76537;DHT22;65381;51.254;15.592;2023-12-20T14:59:12;5.80;97.50
76537;DHT22;65381;51.254;15.592;2023-12-20T15:01:40;5.80;97.40
76537;DHT22;65381;51.254;15.592;2023-12-20T15:04:09;5.80;97.40
76537;DHT22;65381;51.254;15.592;2023-12-20T15:06:37;5.80;97.40
76537;DHT22;65381;51.254;15.592;2023-12-20T15:09:06;5.70;97.50
76537;DHT22;65381;51.254;15.592;2023-12-20T15:11:34;5.80;97.50
76537;DHT22;65381;51.254;15.592;2023-12-20T15:14:03;5.70;97.60
76537;DHT22;65381;51.254;15.592;2023-12-20T15:16:31;5.70;97.70
76537;DHT22;65381;51.254;15.592;2023-12-20T15:19:00;5.80;97.70
76537;DHT22;65381;51.254;15.592;2023-12-20T15:21:28;5.80;97.70
76537;DHT22;65381;51.254;15.592;2023-12-20T15:24:02;5.80;97.80
76537;DHT22;65381;51.254;15.592;2023-12-20T15:26:38;5.80;97.80
76537;DHT22;65381;51.254;15.592;2023-12-20T15:29:07;5.80;97.90
76537;DHT22;65381;51.254;15.592;2023-12-20T15:31:43;5.80;97.90
76537;DHT22;65381;51.254;15.592;2023-12-20T15:34:12;5.80;97.90
76537;DHT22;65381;51.254;15.592;2023-12-20T15:36:42;5.90;97.90
76537;DHT22;65381;51.254;15.592;2023-12-20T15:39:10;5.90;97.90
76537;DHT22;65381;51.254;15.592;2023-12-20T15:41:42;5.90;98.00
76537;DHT22;65381;51.254;15.592;2023-12-20T15:44:10;5.90;98.00
76537;DHT22;65381;51.254;15.592;2023-12-20T15:46:38;6.00;98.00
76537;DHT22;65381;51.254;15.592;2023-12-20T15:49:07;6.00;98.00